AirNav   Pilot Hours Calculator
 
 945 users online  

35TN Dekalb Community Hospital Heliport
Smithville, Tennessee, USA

GOING TO SMITHVILLE?


FAA INFORMATION EFFECTIVE 25 MARCH 2021

Location

FAA Identifier: 35TN
Lat/Long: 35-57-39.6600N 085-49-44.1700W
35-57.661000N 085-49.736167W
35.9610167,-85.8289361
(estimated)
Elevation: 1114 ft. / 340 m (estimated)
Variation: 03W (2000)
From city: 2 miles NE of SMITHVILLE, TN
Time zone: UTC -5 (UTC -6 during Standard Time)
Zip code: 37166

Heliport Operations

Heliport use: Private use. Permission required prior to landing
Activation date: 04/2010
Control tower: no
ARTCC: MEMPHIS CENTER
FSS: NASHVILLE FLIGHT SERVICE STATION
NOTAMs facility: FDC (NOTAM-D service not available)
Attendance: CONTINUOUS
Wind indicator: yes
Segmented circle: no
Lights: FOR PERI LGTS CALL 931-597-7171.

Heliport Communications

WX AWOS-3 at SRB (16 nm E): 128.25 (931-738-3111)
WX AWOS-3 at RNC (16 nm S): 135.525 (931-668-7056)

Nearby radio navigation aids

VOR radial/distance  VOR name  Freq  Var
SYIr052/38.2SHELBYVILLE VOR/DME113.5501W

 
NDB name  Hdg/Dist  Freq  Var  ID
HUCHN265/11.923303WHEM .... . --
WALTER HILL092/26.337102WFQW ..-. --.- .--

Heliport Services

Runway Information

Helipad H1

Dimensions: 80 x 80 ft. / 24 x 24 m
Surface: asphalt, in good condition
Runway edge lights: PERI
Latitude: 35-57.661000N
Longitude: 085-49.736167W
Elevation: 1114.0 ft.
Traffic pattern: leftleft

Heliport Ownership and Management from official FAA records

Ownership: Privately-owned
Owner: SAINT THOMAS DEKALB HOSPITAL LLC
520 W MAIN ST
SMITHVILLE, TN 37166
Phone 615-215-5700
Manager: DEKALB COMMUNITY HOSPITAL
520 W MAIN ST
SMITHVILLE, TN 37166
Phone 615-215-5700

Additional Remarks

A52-H1 113 FT TOWER LOCATED 3,696 FT SE OF PAD.
FOR CD CTC MEMPHIS ARTCC AT 901-368-8453.

Instrument Procedures

There are no published instrument procedures at 35TN.

Some nearby airports with instrument procedures:

0A3 - Smithville Municipal Airport (2 nm NE)
KSRB - Upper Cumberland Regional Airport (16 nm E)
KRNC - Warren County Memorial Airport (16 nm S)
KMBT - Murfreesboro Municipal Airport (27 nm W)
M54 - Lebanon Municipal Airport (27 nm NW)
 
Loc | Ops | Rwys | IFR | FBO | Links
Com | Nav | Svcs | Stats | Notes
Aerial photo
No photo
 
Sectional chart

 
Airport distance calculator
Flying to Dekalb Community Hospital Heliport? Find the distance to fly.

From to 35TN

Sunrise and sunset
Times for 11-Apr-2021
 Local
(UTC-5)
 Zulu
(UTC)
Morning civil twilight05:5010:50
Sunrise06:1711:17
Sunset19:1200:12
Evening civil twilight19:3800:38

Current date and time
Zulu (UTC)  12-Apr-2021 02:08:43
Local (UTC-5)  11-Apr-2021 21:08:43
 
METAR
KSRB 
16nm E 
120155Z AUTO 25004KT 10SM CLR 15/01 A2969 RMK A01
KRNC 
16nm S 
120155Z AUTO 25003KT 10SM CLR 14/03 A2970 RMK A01
KMBT 
27nm W 
120155Z AUTO 22004KT 10SM CLR 16/02 A2968 RMK A01
KM54 
27nm NW 
120155Z AUTO 21005KT 10SM CLR 15/04 A2966 RMK A01
TAF
NOTAMs
Click for the latest NOTAMs
NOTAMs are issued by the DoD/FAA and will open in a separate window not controlled by AirNav.

 

 
 

Would you like to see your business listed on this page?

 If your business provides an interesting product or service to pilots, flight crews, aircraft, or users of the Dekalb Community Hospital Heliport, you should consider listing it here.  To start the listing process, click on the button below
 
Add a business
 

Other Pages about Dekalb Community Hospital Heliport

Update a link
 
Copyright © AirNav, LLC. All rights reserved. Privacy Policy  Contact